Time;durP1;ratioP1;P1;durP2;ratioP2;P2;SDS_P1;SDS_P2;PMS_P1;PMS_P2;Temp;Humidity;BMP_temperature;BMP_pressure;BME280_temperature;BME280_humidity;BME280_pressure;Samples;Min_cycle;Max_cycle;Signal;HPM_P1;HPM_P2
2023/03/11 00:01:04;;;;;;;;;;;;;;;8.69;100.00;91620.06;5022209;28;19961;-38
2023/03/11 00:03:29;;;;;;;;;;;;;;;8.61;100.00;91616.72;5029528;28;19932;-38
2023/03/11 00:05:57;;;;;;;;;;;;;;;8.62;100.00;91609.91;5029881;28;20335;-38
2023/03/11 00:08:23;;;;;;;;;;;;;;;8.69;100.00;91608.31;5022582;28;20020;-38
2023/03/11 00:10:50;;;;;;;;;;;;;;;8.63;100.00;91603.13;5031834;28;20047;-38
2023/03/11 00:13:16;;;;;;;;;;;;;;;8.77;100.00;91595.16;5037261;28;20018;-38
2023/03/11 00:15:42;;;;;;;;;;;;;;;8.62;100.00;91581.69;5029418;28;19990;-38
2023/03/11 00:18:07;;;;;;;;;;;;;;;8.56;100.00;91581.97;5031301;28;20000;-38
2023/03/11 00:20:37;;;;;;;;;;;;;;;8.59;100.00;91578.09;5032104;28;19933;-38
2023/03/11 00:23:03;;;;;;;;;;;;;;;8.61;100.00;91572.00;5021568;28;19936;-38
2023/03/11 00:25:29;;;;;;;;;;;;;;;8.69;100.00;91578.78;5023771;28;19944;-38
2023/03/11 00:27:54;;;;;;;;;;;;;;;8.60;100.00;91567.81;5021554;28;20468;-38
2023/03/11 00:30:20;;;;;;;;;;;;;;;8.58;100.00;91562.88;5023803;28;19945;-38
2023/03/11 00:32:46;;;;;;;;;;;;;;;8.55;100.00;91569.56;5030925;28;20655;-38
2023/03/11 00:35:13;;;;;;;;;;;;;;;8.57;100.00;91569.69;5028283;28;19953;-38
2023/03/11 00:37:38;;;;;;;;;;;;;;;8.56;100.00;91570.97;5028305;28;20032;-38
2023/03/11 00:40:07;;;;;;;;;;;;;;;8.68;100.00;91566.34;5021612;28;20271;-38
2023/03/11 00:42:33;;;;;;;;;;;;;;;8.83;100.00;91565.28;5023574;28;20019;-38
2023/03/11 00:44:58;;;;;;;;;;;;;;;8.86;100.00;91575.13;5020991;28;20384;-38
2023/03/11 00:47:23;;;;;;;;;;;;;;;8.78;100.00;91580.81;5017305;28;19940;-38
2023/03/11 00:49:48;;;;;;;;;;;;;;;8.75;100.00;91579.19;5030711;28;19989;-38
2023/03/11 00:52:14;;;;;;;;;;;;;;;8.80;100.00;91588.47;5020747;28;20332;-38
2023/03/11 00:54:39;;;;;;;;;;;;;;;8.77;100.00;91590.34;5026029;28;19992;-38
2023/03/11 00:57:04;;;;;;;;;;;;;;;8.81;100.00;91620.19;5022142;28;19942;-38
2023/03/11 00:59:30;;;;;;;;;;;;;;;8.88;100.00;91619.31;5031321;28;19972;-38
2023/03/11 01:01:55;;;;;;;;;;;;;;;8.92;100.00;91617.53;5023019;28;19999;-38
2023/03/11 01:04:20;;;;;;;;;;;;;;;8.97;100.00;91624.06;5029611;28;19937;-38
2023/03/11 01:06:45;;;;;;;;;;;;;;;8.99;100.00;91610.44;5030671;28;20456;-38
2023/03/11 01:09:11;;;;;;;;;;;;;;;8.82;100.00;91614.09;5026124;28;19932;-38
2023/03/11 01:11:36;;;;;;;;;;;;;;;8.87;100.00;91618.59;5025027;28;20381;-38
2023/03/11 01:14:01;;;;;;;;;;;;;;;8.86;100.00;91617.13;5029211;28;19953;-38
2023/03/11 01:16:27;;;;;;;;;;;;;;;8.68;100.00;91612.38;5030299;28;19937;-38
2023/03/11 01:18:52;;;;;;;;;;;;;;;8.64;100.00;91626.56;5024557;28;20335;-38
2023/03/11 01:21:17;;;;;;;;;;;;;;;8.65;100.00;91624.53;5030127;28;19944;-38
2023/03/11 01:23:42;;;;;;;;;;;;;;;8.59;100.00;91633.09;5020393;28;19947;-38
2023/03/11 01:26:08;;;;;;;;;;;;;;;8.57;100.00;91627.44;5012241;28;20032;-38
2023/03/11 01:28:33;;;;;;;;;;;;;;;8.51;100.00;91634.53;5030166;28;19940;-38
2023/03/11 01:30:58;;;;;;;;;;;;;;;8.49;100.00;91626.16;5026943;28;20422;-38
2023/03/11 01:33:24;;;;;;;;;;;;;;;8.50;100.00;91627.59;5019718;28;19936;-38
2023/03/11 01:35:49;;;;;;;;;;;;;;;8.37;100.00;91637.00;5024587;28;19988;-38
2023/03/11 01:38:15;;;;;;;;;;;;;;;8.50;100.00;91641.34;5028465;28;20454;-38
2023/03/11 01:40:45;;;;;;;;;;;;;;;8.59;100.00;91629.63;5029818;28;20011;-38
2023/03/11 01:43:28;;;;;;;;;;;;;;;8.51;100.00;91627.00;5028467;28;20024;-38
2023/03/11 01:45:54;;;;;;;;;;;;;;;8.36;100.00;91619.03;5021094;28;20019;-38
2023/03/11 01:48:19;;;;;;;;;;;;;;;8.58;100.00;91617.88;5023162;28;20497;-38
2023/03/11 01:50:45;;;;;;;;;;;;;;;8.28;100.00;91602.69;5034646;28;19946;-38
2023/03/11 01:53:11;;;;;;;;;;;;;;;8.09;100.00;91604.69;5050203;28;19937;-37
2023/03/11 01:55:36;;;;;;;;;;;;;;;8.03;100.00;91602.22;5034047;28;19952;-38
2023/03/11 01:58:02;;;;;;;;;;;;;;;7.99;100.00;91587.47;5053350;28;19942;-38
2023/03/11 02:00:28;;;;;;;;;;;;;;;7.97;100.00;91579.06;5062429;28;19957;-38
2023/03/11 02:02:54;;;;;;;;;;;;;;;7.90;100.00;91582.69;5026043;28;19938;-38
2023/03/11 02:05:20;;;;;;;;;;;;;;;8.18;100.00;91570.97;5055099;28;20038;-38
2023/03/11 02:07:46;;;;;;;;;;;;;;;8.18;100.00;91557.25;5058509;28;20030;-38
2023/03/11 02:10:12;;;;;;;;;;;;;;;8.18;100.00;91549.72;5054872;28;19938;-38
2023/03/11 02:12:37;;;;;;;;;;;;;;;8.08;100.00;91545.50;5027857;28;19928;-38
2023/03/11 02:15:03;;;;;;;;;;;;;;;7.93;100.00;91543.03;5022884;28;19951;-38
2023/03/11 02:17:29;;;;;;;;;;;;;;;7.98;100.00;91542.75;5024262;28;19991;-38
2023/03/11 02:20:00;;;;;;;;;;;;;;;8.05;100.00;91541.19;5029093;28;20335;-38
2023/03/11 02:22:28;;;;;;;;;;;;;;;7.96;100.00;91536.41;5025896;28;20401;-38
2023/03/11 02:24:57;;;;;;;;;;;;;;;8.12;100.00;91541.03;5020041;28;19929;-38
2023/03/11 02:27:22;;;;;;;;;;;;;;;7.96;100.00;91539.16;5018829;28;19934;-38
2023/03/11 02:29:48;;;;;;;;;;;;;;;7.97;100.00;91543.34;5035457;28;19937;-38
2023/03/11 02:32:14;;;;;;;;;;;;;;;7.95;100.00;91545.97;5023427;28;19944;-38
2023/03/11 02:34:39;;;;;;;;;;;;;;;8.11;100.00;91539.59;5022838;28;19977;-38
2023/03/11 02:37:08;;;;;;;;;;;;;;;7.94;100.00;91542.47;5027594;28;20336;-38
2023/03/11 02:39:35;;;;;;;;;;;;;;;7.81;100.00;91542.91;5027306;28;19935;-38
2023/03/11 02:42:01;;;;;;;;;;;;;;;7.83;100.00;91548.53;5026513;28;19932;-38
2023/03/11 02:44:26;;;;;;;;;;;;;;;7.91;100.00;91549.13;5023495;28;20305;-38
2023/03/11 02:46:52;;;;;;;;;;;;;;;7.99;100.00;91557.22;5032252;28;19940;-38
2023/03/11 02:49:17;;;;;;;;;;;;;;;7.86;100.00;91557.66;5060132;28;19972;-38
2023/03/11 02:51:43;;;;;;;;;;;;;;;7.84;100.00;91571.25;5059078;28;20035;-38
2023/03/11 02:54:08;;;;;;;;;;;;;;;7.76;100.00;91568.63;5022419;28;19936;-38
2023/03/11 02:56:33;;;;;;;;;;;;;;;7.87;100.00;91581.06;5022236;28;19990;-38
2023/03/11 02:58:58;;;;;;;;;;;;;;;7.85;100.00;91567.91;5016555;28;20038;-38
2023/03/11 03:01:24;;;;;;;;;;;;;;;7.85;100.00;91572.69;5021719;28;19930;-38
2023/03/11 03:03:49;;;;;;;;;;;;;;;7.74;100.00;91573.22;5026381;28;19996;-38
2023/03/11 03:06:14;;;;;;;;;;;;;;;7.73;100.00;91566.31;5027325;28;19981;-38
2023/03/11 03:08:40;;;;;;;;;;;;;;;7.70;100.00;91551.69;5029312;28;20053;-38
2023/03/11 03:11:05;;;;;;;;;;;;;;;7.69;100.00;91549.53;5027398;28;20036;-38
2023/03/11 03:13:31;;;;;;;;;;;;;;;7.57;100.00;91546.63;5025793;28;20000;-38
2023/03/11 03:15:56;;;;;;;;;;;;;;;7.44;100.00;91553.25;5019633;28;19959;-38
2023/03/11 03:18:22;;;;;;;;;;;;;;;7.48;100.00;91556.28;5024707;28;19986;-38
2023/03/11 03:20:47;;;;;;;;;;;;;;;7.48;100.00;91555.56;5027614;28;20390;-38
2023/03/11 03:23:12;;;;;;;;;;;;;;;7.47;100.00;91556.88;5014874;28;19935;-38
2023/03/11 03:25:40;;;;;;;;;;;;;;;7.44;100.00;91569.72;5027933;28;19989;-38
2023/03/11 03:28:06;;;;;;;;;;;;;;;7.48;100.00;91580.25;5018590;28;19973;-38
2023/03/11 03:30:31;;;;;;;;;;;;;;;7.38;100.00;91571.28;5022891;28;19964;-38
2023/03/11 03:32:56;;;;;;;;;;;;;;;7.33;100.00;91578.50;5033412;28;19939;-38
2023/03/11 03:35:21;;;;;;;;;;;;;;;7.45;100.00;91571.16;5029941;28;19952;-38
2023/03/11 03:37:47;;;;;;;;;;;;;;;7.41;100.00;91576.34;5035677;28;19940;-38
2023/03/11 03:40:12;;;;;;;;;;;;;;;7.59;100.00;91580.44;5030767;28;20440;-38
2023/03/11 03:42:38;;;;;;;;;;;;;;;7.46;100.00;91582.84;5027703;28;19983;-38
2023/03/11 03:45:04;;;;;;;;;;;;;;;7.47;100.00;91587.78;5022997;28;20380;-37
2023/03/11 03:47:30;;;;;;;;;;;;;;;7.51;100.00;91579.13;5029183;28;19945;-37
2023/03/11 03:49:55;;;;;;;;;;;;;;;7.56;100.00;91584.34;5019663;28;19934;-38
2023/03/11 03:52:21;;;;;;;;;;;;;;;7.79;100.00;91580.47;5020710;28;20413;-38
2023/03/11 03:54:46;;;;;;;;;;;;;;;7.68;100.00;91584.50;5033890;28;20011;-38
2023/03/11 03:57:11;;;;;;;;;;;;;;;7.81;100.00;91588.88;5028588;28;19946;-38
2023/03/11 03:59:36;;;;;;;;;;;;;;;7.85;100.00;91583.66;5029330;28;19956;-38
2023/03/11 04:02:02;;;;;;;;;;;;;;;7.98;100.00;91580.50;5031706;28;20413;-38
2023/03/11 04:04:27;;;;;;;;;;;;;;;7.98;100.00;91577.75;5027067;28;19941;-38
2023/03/11 04:06:52;;;;;;;;;;;;;;;7.83;100.00;91576.00;5028348;28;19944;-38
2023/03/11 04:09:18;;;;;;;;;;;;;;;7.84;100.00;91576.75;5026156;28;20410;-38
2023/03/11 04:11:43;;;;;;;;;;;;;;;7.81;100.00;91584.09;5022727;28;19996;-38
2023/03/11 04:14:08;;;;;;;;;;;;;;;7.83;100.00;91586.28;5023595;28;19939;-38
2023/03/11 04:16:34;;;;;;;;;;;;;;;7.76;100.00;91587.13;5025192;28;20027;-38
2023/03/11 04:18:59;;;;;;;;;;;;;;;7.77;100.00;91589.31;5026702;28;19978;-39
2023/03/11 04:21:24;;;;;;;;;;;;;;;7.85;100.00;91595.38;5030050;28;19997;-38
2023/03/11 04:23:50;;;;;;;;;;;;;;;8.00;100.00;91595.13;5017111;28;19928;-38
2023/03/11 04:26:15;;;;;;;;;;;;;;;7.88;100.00;91601.75;5023447;28;19986;-38
2023/03/11 04:28:40;;;;;;;;;;;;;;;7.80;100.00;91595.66;5029358;28;20470;-38
2023/03/11 04:31:06;;;;;;;;;;;;;;;7.82;100.00;91596.53;5023902;28;20322;-38
2023/03/11 04:33:32;;;;;;;;;;;;;;;7.81;100.00;91599.84;5028182;28;19936;-38
2023/03/11 04:35:57;;;;;;;;;;;;;;;7.81;100.00;91594.38;5024596;28;19987;-38
2023/03/11 04:38:22;;;;;;;;;;;;;;;7.77;100.00;91585.84;5031948;28;20018;-38
2023/03/11 04:40:48;;;;;;;;;;;;;;;7.76;100.00;91587.13;5024157;28;19942;-38
2023/03/11 04:43:13;;;;;;;;;;;;;;;7.74;100.00;91589.72;5031451;28;20058;-38
2023/03/11 04:45:39;;;;;;;;;;;;;;;7.83;100.00;91598.00;5031717;28;19932;-38
2023/03/11 04:48:04;;;;;;;;;;;;;;;7.85;100.00;91600.16;5030985;28;19937;-38
2023/03/11 04:50:29;;;;;;;;;;;;;;;7.82;100.00;91593.78;5031899;28;19932;-38
2023/03/11 04:52:55;;;;;;;;;;;;;;;7.79;100.00;91586.72;5023283;28;19946;-38
2023/03/11 04:55:21;;;;;;;;;;;;;;;7.68;100.00;91575.53;5027146;28;19955;-38
2023/03/11 04:57:46;;;;;;;;;;;;;;;7.48;100.00;91578.25;5032246;28;20035;-38
2023/03/11 05:00:11;;;;;;;;;;;;;;;7.43;100.00;91578.50;5036228;28;19964;-38
2023/03/11 05:02:38;;;;;;;;;;;;;;;7.51;100.00;91590.81;5037196;28;20033;-38
2023/03/11 05:05:03;;;;;;;;;;;;;;;7.50;100.00;91600.38;5028243;28;20327;-38
2023/03/11 05:07:28;;;;;;;;;;;;;;;7.50;100.00;91605.84;5020085;28;19947;-38
2023/03/11 05:09:54;;;;;;;;;;;;;;;7.45;100.00;91601.34;5030333;28;19996;-38
2023/03/11 05:12:19;;;;;;;;;;;;;;;7.43;100.00;91592.97;5024314;28;19930;-38
2023/03/11 05:14:44;;;;;;;;;;;;;;;7.53;100.00;91595.75;5029028;28;19954;-38
2023/03/11 05:17:12;;;;;;;;;;;;;;;7.68;100.00;91606.50;5034536;28;19939;-38
2023/03/11 05:19:37;;;;;;;;;;;;;;;7.59;100.00;91609.94;5027674;28;20000;-38
2023/03/11 05:22:02;;;;;;;;;;;;;;;7.56;100.00;91617.28;5025352;28;19940;-38
2023/03/11 05:24:28;;;;;;;;;;;;;;;7.42;100.00;91627.22;5026434;28;20301;-38
2023/03/11 05:26:53;;;;;;;;;;;;;;;7.54;100.00;91624.63;5024620;28;19930;-38
2023/03/11 05:29:19;;;;;;;;;;;;;;;7.69;100.00;91631.94;5019740;28;19938;-38
2023/03/11 05:31:44;;;;;;;;;;;;;;;7.79;100.00;91621.69;5026060;28;20020;-38
2023/03/11 05:34:09;;;;;;;;;;;;;;;7.92;100.00;91624.03;5026500;28;19936;-38
2023/03/11 05:36:35;;;;;;;;;;;;;;;7.89;100.00;91633.41;5018551;28;19936;-38
2023/03/11 05:39:00;;;;;;;;;;;;;;;8.02;100.00;91633.75;5022568;28;19948;-38
2023/03/11 05:41:25;;;;;;;;;;;;;;;8.06;100.00;91636.06;5022742;28;19936;-38
2023/03/11 05:43:51;;;;;;;;;;;;;;;8.03;100.00;91648.22;5023453;28;19940;-38
2023/03/11 05:46:16;;;;;;;;;;;;;;;8.03;100.00;91640.69;5022505;28;20273;-38
2023/03/11 05:48:41;;;;;;;;;;;;;;;7.98;100.00;91651.94;5022845;28;19933;-38
2023/03/11 05:51:08;;;;;;;;;;;;;;;8.22;100.00;91654.47;5026956;28;20036;-38
2023/03/11 05:53:33;;;;;;;;;;;;;;;8.24;100.00;91651.88;5027054;28;19938;-38
2023/03/11 05:55:59;;;;;;;;;;;;;;;8.13;100.00;91646.94;5035147;28;19958;-38
2023/03/11 05:58:24;;;;;;;;;;;;;;;8.10;100.00;91647.38;5024927;28;19974;-38
2023/03/11 06:00:49;;;;;;;;;;;;;;;8.16;100.00;91653.31;5018867;28;19960;-38
2023/03/11 06:03:15;;;;;;;;;;;;;;;8.27;100.00;91644.53;5023538;28;19939;-38
2023/03/11 06:05:46;;;;;;;;;;;;;;;8.25;100.00;91649.84;5027998;28;20019;-38
2023/03/11 06:08:12;;;;;;;;;;;;;;;8.34;100.00;91652.63;5020900;28;19936;-39
2023/03/11 06:10:37;;;;;;;;;;;;;;;8.31;100.00;91640.03;5021166;28;19963;-38
2023/03/11 06:13:02;;;;;;;;;;;;;;;8.27;100.00;91655.50;5028539;28;20496;-38
2023/03/11 06:15:28;;;;;;;;;;;;;;;8.33;100.00;91651.19;5026241;28;19956;-38
2023/03/11 06:17:53;;;;;;;;;;;;;;;8.39;100.00;91659.13;5026086;28;19946;-38
2023/03/11 06:20:18;;;;;;;;;;;;;;;8.45;100.00;91654.06;5023202;28;19950;-38
2023/03/11 06:22:43;;;;;;;;;;;;;;;8.44;100.00;91658.13;5022437;28;20019;-38
2023/03/11 06:25:09;;;;;;;;;;;;;;;8.50;100.00;91655.09;5021490;28;19939;-37
2023/03/11 06:27:34;;;;;;;;;;;;;;;8.51;100.00;91645.53;5028597;28;19986;-38
2023/03/11 06:30:00;;;;;;;;;;;;;;;8.69;100.00;91655.09;5024970;28;20017;-38
2023/03/11 06:32:25;;;;;;;;;;;;;;;8.87;100.00;91656.38;5031723;28;20347;-38
2023/03/11 06:34:51;;;;;;;;;;;;;;;8.95;100.00;91665.22;5036840;28;20042;-38
2023/03/11 06:37:17;;;;;;;;;;;;;;;9.14;99.92;91656.91;5022964;28;20397;-37
2023/03/11 06:39:42;;;;;;;;;;;;;;;8.96;97.02;91661.88;5035278;28;20428;-37
2023/03/11 06:42:10;;;;;;;;;;;;;;;9.05;94.99;91663.19;5021291;28;19943;-38
2023/03/11 06:44:36;;;;;;;;;;;;;;;9.14;92.63;91668.66;5028579;28;20022;-38
2023/03/11 06:47:01;;;;;;;;;;;;;;;9.27;93.19;91650.25;5039696;28;19971;-38
2023/03/11 06:49:26;;;;;;;;;;;;;;;9.55;92.01;91654.94;5027457;28;20392;-38
2023/03/11 06:51:52;;;;;;;;;;;;;;;9.93;87.83;91654.78;5029528;28;19938;-38
2023/03/11 06:54:17;;;;;;;;;;;;;;;9.80;85.06;91664.25;5024698;28;19985;-38
2023/03/11 06:56:42;;;;;;;;;;;;;;;9.54;86.09;91639.72;5033481;28;19948;-38
2023/03/11 06:59:08;;;;;;;;;;;;;;;9.70;86.79;91660.09;5025820;28;19953;-39
2023/03/11 07:01:33;;;;;;;;;;;;;;;9.69;87.61;91656.63;5026162;28;19996;-38
2023/03/11 07:03:58;;;;;;;;;;;;;;;9.61;86.57;91667.09;5057259;28;20414;-38
2023/03/11 07:06:24;;;;;;;;;;;;;;;9.67;87.05;91658.50;5034371;28;20078;-38
2023/03/11 07:08:50;;;;;;;;;;;;;;;9.62;86.04;91657.50;5013908;28;19967;-38
2023/03/11 07:11:17;;;;;;;;;;;;;;;9.42;87.59;91653.38;5024569;28;19990;-38
2023/03/11 07:13:42;;;;;;;;;;;;;;;9.50;88.17;91642.91;5024911;28;19941;-38
2023/03/11 07:16:09;;;;;;;;;;;;;;;9.69;84.19;91642.13;5030850;28;19952;-38
2023/03/11 07:18:35;;;;;;;;;;;;;;;9.73;84.75;91640.34;5029051;28;20491;-38
2023/03/11 07:21:01;;;;;;;;;;;;;;;9.50;85.13;91640.16;5065193;28;19940;-38
2023/03/11 07:23:28;;;;;;;;;;;;;;;9.45;87.51;91648.72;5025656;28;20002;-38
2023/03/11 07:25:54;;;;;;;;;;;;;;;9.69;84.70;91639.34;5025443;28;20040;-38
2023/03/11 07:28:20;;;;;;;;;;;;;;;9.76;84.37;91635.72;5021708;28;20305;-38
2023/03/11 07:30:47;;;;;;;;;;;;;;;9.83;82.34;91641.03;5028441;28;20475;-38
2023/03/11 07:33:12;;;;;;;;;;;;;;;9.80;83.11;91625.69;5028482;28;19990;-38
2023/03/11 07:35:38;;;;;;;;;;;;;;;10.43;80.83;91644.34;5029537;28;20392;-38
2023/03/11 07:38:03;;;;;;;;;;;;;;;10.64;79.13;91638.81;5023761;28;20602;-38
2023/03/11 07:40:28;;;;;;;;;;;;;;;10.68;77.96;91636.31;5023415;28;19942;-38
2023/03/11 07:42:54;;;;;;;;;;;;;;;10.43;79.55;91625.03;5026997;28;19984;-38
2023/03/11 07:45:19;;;;;;;;;;;;;;;10.42;79.26;91625.63;5030115;28;20431;-38
2023/03/11 07:47:44;;;;;;;;;;;;;;;10.62;78.82;91624.88;5022921;28;20457;-38
2023/03/11 07:50:10;;;;;;;;;;;;;;;10.54;77.96;91623.66;5023131;28;20320;-38
2023/03/11 07:52:35;;;;;;;;;;;;;;;10.89;77.84;91626.56;5023740;28;19945;-38
2023/03/11 07:55:00;;;;;;;;;;;;;;;11.85;74.01;91624.25;5020553;28;20009;-38
2023/03/11 07:57:25;;;;;;;;;;;;;;;11.88;72.15;91622.31;5022176;28;20462;-38
2023/03/11 07:59:51;;;;;;;;;;;;;;;12.22;71.98;91616.03;5021900;28;19966;-38
2023/03/11 08:02:16;;;;;;;;;;;;;;;12.40;70.02;91614.34;5019924;28;19950;-38
2023/03/11 08:04:41;;;;;;;;;;;;;;;13.79;64.27;91604.69;5019533;28;20107;-38
2023/03/11 08:07:07;;;;;;;;;;;;;;;14.14;61.17;91596.81;5021335;28;19940;-39
2023/03/11 08:09:33;;;;;;;;;;;;;;;13.54;63.02;91595.09;5016907;28;19971;-38
2023/03/11 08:11:59;;;;;;;;;;;;;;;12.74;63.57;91585.09;5014334;28;19950;-38
2023/03/11 08:14:24;;;;;;;;;;;;;;;12.39;66.43;91573.44;5019746;28;19949;-38
2023/03/11 08:16:49;;;;;;;;;;;;;;;12.23;67.26;91567.69;5018682;28;19942;-38
2023/03/11 08:19:15;;;;;;;;;;;;;;;12.14;66.65;91574.81;5022655;28;20317;-38
2023/03/11 08:21:40;;;;;;;;;;;;;;;12.11;67.50;91567.72;5018749;28;20438;-38
2023/03/11 08:24:05;;;;;;;;;;;;;;;12.11;68.00;91562.19;5014047;28;20043;-42
2023/03/11 08:26:31;;;;;;;;;;;;;;;13.08;66.74;91566.94;5011744;28;19940;-42
2023/03/11 08:28:56;;;;;;;;;;;;;;;15.42;59.05;91571.13;5018431;28;20017;-42
2023/03/11 08:31:23;;;;;;;;;;;;;;;16.25;54.67;91564.41;5018922;28;20666;-38
2023/03/11 08:33:49;;;;;;;;;;;;;;;15.35;55.99;91572.19;5022640;28;19941;-38
2023/03/11 08:36:14;;;;;;;;;;;;;;;15.08;57.57;91570.94;5018600;28;20362;-38
2023/03/11 08:38:40;;;;;;;;;;;;;;;14.64;59.29;91563.25;5023962;28;20351;-38
2023/03/11 08:41:05;;;;;;;;;;;;;;;14.34;60.10;91556.22;5024365;28;19942;-38
2023/03/11 08:43:31;;;;;;;;;;;;;;;14.27;59.27;91554.47;5024466;28;20000;-39
2023/03/11 08:45:56;;;;;;;;;;;;;;;15.98;58.01;91540.28;5019435;28;19948;-39
2023/03/11 08:48:24;;;;;;;;;;;;;;;17.20;52.69;91536.31;5054094;28;20048;-38
2023/03/11 08:50:49;;;;;;;;;;;;;;;18.05;49.29;91534.66;5017534;28;19939;-39
2023/03/11 08:53:15;;;;;;;;;;;;;;;18.59;47.82;91535.88;5023082;28;19933;-38
2023/03/11 08:55:40;;;;;;;;;;;;;;;20.05;45.35;91535.59;5021283;28;19952;-38
2023/03/11 08:58:06;;;;;;;;;;;;;;;21.86;39.94;91529.03;5023696;28;19995;-37
2023/03/11 09:00:31;;;;;;;;;;;;;;;21.73;38.44;91541.38;5013839;28;20393;-39
2023/03/11 09:02:57;;;;;;;;;;;;;;;20.57;42.50;91545.50;5021986;28;19943;-38
2023/03/11 09:05:22;;;;;;;;;;;;;;;22.28;39.69;91538.38;5020027;28;20537;-38
2023/03/11 09:07:47;;;;;;;;;;;;;;;22.73;36.59;91533.66;5016988;28;19941;-39
2023/03/11 09:10:13;;;;;;;;;;;;;;;22.34;36.13;91521.63;5020330;28;19942;-38
2023/03/11 09:12:39;;;;;;;;;;;;;;;22.71;36.15;91544.88;5018594;28;19942;-38
2023/03/11 09:15:04;;;;;;;;;;;;;;;23.41;35.41;91537.72;5017812;28;19959;-39
2023/03/11 09:17:30;;;;;;;;;;;;;;;23.28;35.36;91544.50;5016556;28;19934;-39
2023/03/11 09:19:55;;;;;;;;;;;;;;;21.38;37.36;91548.28;5018455;28;19938;-38
2023/03/11 09:22:20;;;;;;;;;;;;;;;20.93;36.44;91540.09;5019761;28;19939;-39
2023/03/11 09:24:46;;;;;;;;;;;;;;;18.99;41.19;91544.91;5021427;28;19942;-38
2023/03/11 09:27:12;;;;;;;;;;;;;;;17.58;44.28;91561.50;5019365;28;19941;-38
2023/03/11 09:29:37;;;;;;;;;;;;;;;17.74;44.29;91542.56;5023926;28;19939;-38
2023/03/11 09:32:03;;;;;;;;;;;;;;;19.44;42.48;91547.06;5034360;28;20394;-38
2023/03/11 09:34:28;;;;;;;;;;;;;;;21.11;38.82;91555.31;5019131;28;20036;-38
2023/03/11 09:36:54;;;;;;;;;;;;;;;21.13;37.03;91552.59;5018994;28;20458;-38
2023/03/11 09:39:19;;;;;;;;;;;;;;;20.54;38.65;91552.41;5016789;28;20032;-38
2023/03/11 09:41:50;;;;;;;;;;;;;;;20.07;37.72;91563.66;5020342;28;19981;-39
2023/03/11 09:44:34;;;;;;;;;;;;;;;18.72;41.03;91540.53;5020211;28;20077;-38
2023/03/11 09:47:02;;;;;;;;;;;;;;;19.57;40.61;91546.06;5020082;28;19952;-38
2023/03/11 09:49:28;;;;;;;;;;;;;;;22.11;35.46;91547.84;5017372;28;19937;-38
2023/03/11 09:51:59;;;;;;;;;;;;;;;22.04;35.39;91531.53;5019432;28;19959;-39
2023/03/11 09:54:27;;;;;;;;;;;;;;;20.42;35.61;91546.47;5018995;28;20355;-38
2023/03/11 09:56:53;;;;;;;;;;;;;;;19.22;39.25;91560.31;5044122;28;19944;-38
2023/03/11 09:59:20;;;;;;;;;;;;;;;19.48;38.39;91544.38;5035416;28;19967;-38
2023/03/11 10:01:47;;;;;;;;;;;;;;;18.66;39.99;91548.00;5048985;28;19957;-38
2023/03/11 10:04:19;;;;;;;;;;;;;;;18.86;40.82;91551.47;5017539;28;19932;-38
2023/03/11 10:06:44;;;;;;;;;;;;;;;20.35;37.51;91539.28;5023643;28;19938;-39
2023/03/11 10:09:28;;;;;;;;;;;;;;;19.00;38.53;91540.72;5017827;28;19952;-38
2023/03/11 10:12:12;;;;;;;;;;;;;;;17.68;44.05;91537.47;5018160;28;20440;-38
2023/03/11 10:14:41;;;;;;;;;;;;;;;19.42;42.06;91530.94;5016954;28;20006;-38
2023/03/11 10:17:25;;;;;;;;;;;;;;;19.29;41.30;91542.38;5050544;28;19941;-38
2023/03/11 10:19:54;;;;;;;;;;;;;;;18.92;41.25;91534.88;5017592;28;19938;-38
2023/03/11 10:22:22;;;;;;;;;;;;;;;20.01;39.94;91527.06;5018205;28;19938;-38
2023/03/11 10:25:06;;;;;;;;;;;;;;;21.44;38.02;91536.50;5017748;28;19942;-38
2023/03/11 10:27:34;;;;;;;;;;;;;;;22.01;35.29;91530.78;5018561;28;20029;-39
2023/03/11 10:30:14;;;;;;;;;;;;;;;23.01;33.42;91534.88;5046862;28;19980;-38
2023/03/11 10:32:41;;;;;;;;;;;;;;;23.23;32.57;91532.47;5019228;28;19940;-39
2023/03/11 10:35:23;;;;;;;;;;;;;;;21.09;34.88;91534.94;5030585;28;19956;-39
2023/03/11 10:37:51;;;;;;;;;;;;;;;20.60;35.06;91538.53;5020416;28;19938;-38
2023/03/11 10:40:18;;;;;;;;;;;;;;;20.56;35.88;91538.44;5011888;28;19937;-38
2023/03/11 10:42:43;;;;;;;;;;;;;;;19.56;36.71;91530.63;5050541;28;19941;-38
2023/03/11 10:45:12;;;;;;;;;;;;;;;20.09;37.51;91530.09;5044591;28;20451;-38
2023/03/11 10:47:37;;;;;;;;;;;;;;;19.90;35.76;91522.56;5026054;28;19941;-38
2023/03/11 10:50:03;;;;;;;;;;;;;;;19.36;36.54;91519.53;5024093;28;19940;-38
2023/03/11 10:52:28;;;;;;;;;;;;;;;19.15;39.68;91516.72;5023509;28;20616;-38
2023/03/11 10:55:01;;;;;;;;;;;;;;;20.15;37.79;91525.38;5026012;28;19951;-38
2023/03/11 10:57:34;;;;;;;;;;;;;;;21.22;34.07;91514.22;5022413;28;20619;-39
2023/03/11 11:00:00;;;;;;;;;;;;;;;22.02;34.44;91515.34;5022060;28;20495;-38
2023/03/11 11:02:31;;;;;;;;;;;;;;;22.76;33.05;91502.06;5017533;28;19994;-38
2023/03/11 11:05:15;;;;;;;;;;;;;;;23.55;31.45;91489.31;5017705;28;19938;-38
2023/03/11 11:07:40;;;;;;;;;;;;;;;24.08;30.00;91488.72;5025216;28;19982;-38
2023/03/11 11:10:12;;;;;;;;;;;;;;;23.09;29.80;91470.28;5026487;28;19980;-38
2023/03/11 11:12:56;;;;;;;;;;;;;;;21.72;30.47;91469.72;5019578;28;19942;-38
2023/03/11 11:15:29;;;;;;;;;;;;;;;22.87;31.47;91464.25;5031393;28;20405;-39
2023/03/11 11:17:55;;;;;;;;;;;;;;;23.50;31.11;91471.63;5018484;28;19938;-39
2023/03/11 11:20:21;;;;;;;;;;;;;;;23.11;29.96;91450.59;5024700;28;19974;-39
2023/03/11 11:22:47;;;;;;;;;;;;;;;22.45;30.99;91464.22;5018672;28;20036;-38
2023/03/11 11:25:32;;;;;;;;;;;;;;;21.62;32.05;91461.78;5054035;28;20381;-39
2023/03/11 11:28:18;;;;;;;;;;;;;;;22.30;31.53;91465.31;5019507;28;19938;-38
2023/03/11 11:31:03;;;;;;;;;;;;;;;22.35;30.92;91455.56;5026104;28;19936;-38
2023/03/11 11:33:29;;;;;;;;;;;;;;;21.54;32.07;91472.84;5023541;28;19942;-38
2023/03/11 11:35:56;;;;;;;;;;;;;;;21.47;31.35;91459.31;5021202;28;20366;-38
2023/03/11 11:38:23;;;;;;;;;;;;;;;21.18;34.63;91477.59;5017683;28;19947;-38
2023/03/11 11:40:49;;;;;;;;;;;;;;;21.11;33.75;91473.94;5022658;28;19941;-38
2023/03/11 11:43:18;;;;;;;;;;;;;;;20.20;35.25;91482.13;5026696;28;19933;-38
2023/03/11 11:45:44;;;;;;;;;;;;;;;19.02;36.65;91470.88;5058620;28;20034;-38
2023/03/11 11:48:19;;;;;;;;;;;;;;;18.32;37.94;91479.72;5030361;28;19951;-38
2023/03/11 11:50:45;;;;;;;;;;;;;;;18.14;40.32;91477.03;5014896;28;19955;-38
2023/03/11 11:53:16;;;;;;;;;;;;;;;18.46;40.56;91472.56;5033599;28;20404;-38
2023/03/11 11:55:43;;;;;;;;;;;;;;;18.53;41.13;91476.28;5022937;28;19946;-38
2023/03/11 11:58:11;;;;;;;;;;;;;;;18.83;41.15;91464.00;5038107;28;19934;-38
2023/03/11 12:00:45;;;;;;;;;;;;;;;19.19;39.28;91469.31;5055000;28;19960;-39
2023/03/11 12:03:29;;;;;;;;;;;;;;;18.70;40.03;91472.63;5023352;28;20048;-38
2023/03/11 12:05:57;;;;;;;;;;;;;;;17.65;41.39;91474.56;5027831;28;20487;-38
2023/03/11 12:08:26;;;;;;;;;;;;;;;17.44;41.14;91472.38;5025470;28;19992;-38
2023/03/11 12:10:53;;;;;;;;;;;;;;;17.58;41.25;91486.88;5021417;28;19944;-38
2023/03/11 12:13:21;;;;;;;;;;;;;;;17.66;41.62;91484.38;5029060;28;20436;-38
2023/03/11 12:15:49;;;;;;;;;;;;;;;17.92;42.68;91484.63;5019552;28;19949;-38
2023/03/11 12:18:16;;;;;;;;;;;;;;;18.29;40.28;91481.72;5020240;28;19933;-38
2023/03/11 12:20:43;;;;;;;;;;;;;;;18.56;42.09;91486.88;5021650;28;19934;-38
2023/03/11 12:23:17;;;;;;;;;;;;;;;18.68;41.07;91467.00;5025432;28;19944;-38
2023/03/11 12:25:43;;;;;;;;;;;;;;;18.64;41.04;91484.34;5027223;28;19938;-38
2023/03/11 12:28:13;;;;;;;;;;;;;;;19.48;37.43;91466.00;5025567;28;19938;-38
2023/03/11 12:30:44;;;;;;;;;;;;;;;18.70;38.22;91464.97;5057685;28;19956;-38
2023/03/11 12:33:12;;;;;;;;;;;;;;;18.42;39.66;91472.41;5022570;28;20339;-38
2023/03/11 12:35:37;;;;;;;;;;;;;;;18.26;38.96;91479.53;5027775;28;19959;-38
2023/03/11 12:38:12;;;;;;;;;;;;;;;17.70;39.97;91467.06;5025918;28;19939;-38
2023/03/11 12:40:45;;;;;;;;;;;;;;;17.84;39.48;91479.47;5030694;28;19930;-38
2023/03/11 12:43:29;;;;;;;;;;;;;;;17.42;39.89;91466.72;5056062;28;19962;-38
2023/03/11 12:45:58;;;;;;;;;;;;;;;16.84;42.54;91486.78;5028813;28;20026;-38